createdAt,value
2023-01-17T00:01:49.821Z,98366.22
2023-01-17T00:04:35.089Z,98358.47
2023-01-17T00:07:30.967Z,98360.28
2023-01-17T00:10:04.494Z,98360.16
2023-01-17T00:12:31.529Z,98361.87
2023-01-17T00:14:58.999Z,98366.00
2023-01-17T00:17:27.244Z,98363.34
2023-01-17T00:20:12.932Z,98354.63
2023-01-17T00:22:58.957Z,98359.00
2023-01-17T00:25:48.469Z,98358.66
2023-01-17T00:28:15.366Z,98356.00
2023-01-17T00:30:42.139Z,98352.94
2023-01-17T00:33:08.985Z,98354.84
2023-01-17T00:35:35.914Z,98354.19
2023-01-17T00:38:13.145Z,98356.00
2023-01-17T00:40:42.019Z,98355.16
2023-01-17T00:43:28.976Z,98341.06
2023-01-17T00:46:14.777Z,98346.91
2023-01-17T00:49:01.133Z,98352.50
2023-01-17T00:51:48.104Z,98331.50
2023-01-17T00:54:34.044Z,98335.41
2023-01-17T00:57:19.476Z,98333.72
2023-01-17T01:00:05.477Z,98333.06
2023-01-17T01:02:51.221Z,98339.97
2023-01-17T01:05:37.324Z,98342.75
2023-01-17T01:08:22.841Z,98341.56
2023-01-17T01:11:08.239Z,98334.44
2023-01-17T01:13:53.852Z,98330.94
2023-01-17T01:16:39.314Z,98328.16
2023-01-17T01:19:24.828Z,98337.84
2023-01-17T01:22:10.127Z,98342.19
2023-01-17T01:24:55.658Z,98338.47
2023-01-17T01:27:41.562Z,98331.34
2023-01-17T01:30:27.442Z,98327.00
2023-01-17T01:33:12.908Z,98318.91
2023-01-17T01:35:41.891Z,98321.91
2023-01-17T01:38:08.902Z,98315.78
2023-01-17T01:40:41.115Z,98333.69
2023-01-17T01:43:12.305Z,98333.59
2023-01-17T01:45:39.825Z,98323.81
2023-01-17T01:48:37.083Z,98329.25
2023-01-17T01:51:06.894Z,98334.78
2023-01-17T01:53:36.149Z,98345.28
2023-01-17T01:56:03.826Z,98340.09
2023-01-17T01:58:32.574Z,98336.56
2023-01-17T02:00:59.442Z,98331.16
2023-01-17T02:03:29.406Z,98328.72
2023-01-17T02:06:02.779Z,98332.22
2023-01-17T02:08:29.757Z,98324.19
2023-01-17T02:10:56.727Z,98324.19
2023-01-17T02:13:23.569Z,98329.47
2023-01-17T02:16:09.296Z,98320.66
2023-01-17T02:19:00.836Z,98326.81
2023-01-17T02:21:33.357Z,98321.53
2023-01-17T02:24:18.389Z,98311.75
2023-01-17T02:26:56.005Z,98304.94
2023-01-17T02:29:49.359Z,98294.47
2023-01-17T02:32:57.616Z,98283.97
2023-01-17T02:35:28.206Z,98293.28
2023-01-17T02:38:21.518Z,98282.56
2023-01-17T02:40:58.928Z,98282.44
2023-01-17T02:43:26.361Z,98272.69
2023-01-17T02:45:53.185Z,98274.50
2023-01-17T02:48:22.801Z,98276.81
2023-01-17T02:51:14.128Z,98283.59
2023-01-17T02:54:03.448Z,98275.00
2023-01-17T02:56:48.549Z,98276.47
2023-01-17T02:59:53.780Z,98271.06
2023-01-17T03:02:27.842Z,98261.06
2023-01-17T03:05:00.762Z,98264.56
2023-01-17T03:07:28.440Z,98264.47
2023-01-17T03:09:59.912Z,98264.47
2023-01-17T03:12:29.390Z,98251.19
2023-01-17T03:14:56.440Z,98248.09
2023-01-17T03:17:25.654Z,98242.88
2023-01-17T03:19:52.569Z,98238.22
2023-01-17T03:22:19.500Z,98237.47
2023-01-17T03:24:46.335Z,98235.56
2023-01-17T03:27:13.231Z,98223.13
2023-01-17T03:29:40.067Z,98221.09
2023-01-17T03:32:06.967Z,98215.69
2023-01-17T03:34:33.843Z,98206.00
2023-01-17T03:37:00.699Z,98204.94
2023-01-17T03:39:27.510Z,98202.41
2023-01-17T03:41:54.314Z,98199.63
2023-01-17T03:44:21.130Z,98191.91
2023-01-17T03:46:47.925Z,98188.28
2023-01-17T03:49:16.686Z,98188.28
2023-01-17T03:51:44.326Z,98190.84
2023-01-17T03:54:11.259Z,98182.97
2023-01-17T03:56:38.088Z,98189.03
2023-01-17T03:59:04.977Z,98189.03
2023-01-17T04:01:31.937Z,98173.84
2023-01-17T04:03:58.800Z,98180.09
2023-01-17T04:06:25.630Z,98167.78
2023-01-17T04:08:53.077Z,98174.06
2023-01-17T04:11:19.944Z,98170.22
2023-01-17T04:13:46.813Z,98176.34
2023-01-17T04:16:16.593Z,98180.97
2023-01-17T04:18:43.845Z,98170.09
2023-01-17T04:21:10.879Z,98157.78
2023-01-17T04:23:37.783Z,98160.81
2023-01-17T04:26:04.729Z,98166.81
2023-01-17T04:28:31.810Z,98159.81
2023-01-17T04:30:59.997Z,98162.38
2023-01-17T04:33:27.171Z,98156.19
2023-01-17T04:35:54.437Z,98157.78
2023-01-17T04:38:21.955Z,98162.25
2023-01-17T04:40:49.170Z,98153.44
2023-01-17T04:43:16.801Z,98147.63
2023-01-17T04:45:43.979Z,98157.06
2023-01-17T04:48:12.683Z,98156.94
2023-01-17T04:50:40.190Z,98152.25
2023-01-17T04:53:07.101Z,98149.09
2023-01-17T04:55:33.981Z,98154.53
2023-01-17T04:58:00.946Z,98158.63
2023-01-17T05:00:27.747Z,98154.78
2023-01-17T05:02:54.731Z,98146.31
2023-01-17T05:05:21.608Z,98151.75
2023-01-17T05:07:57.972Z,98154.88
2023-01-17T05:10:25.317Z,98165.28
2023-01-17T05:12:59.392Z,98162.50
2023-01-17T05:15:27.007Z,98150.66
2023-01-17T05:17:54.314Z,98169.00
2023-01-17T05:20:22.794Z,98160.84
2023-01-17T05:22:55.565Z,98160.34
2023-01-17T05:25:24.407Z,98159.25
2023-01-17T05:27:51.543Z,98154.28
2023-01-17T05:30:18.712Z,98157.06
2023-01-17T05:32:49.534Z,98151.28
2023-01-17T05:35:21.771Z,98160.19
2023-01-17T05:37:50.677Z,98157.78
2023-01-17T05:40:25.542Z,98154.28
2023-01-17T05:42:53.773Z,98166.72
2023-01-17T05:45:22.001Z,98170.81
2023-01-17T05:47:50.889Z,98176.88
2023-01-17T05:50:24.677Z,98170.59
2023-01-17T05:53:03.184Z,98175.06
2023-01-17T05:55:31.063Z,98169.50
2023-01-17T05:57:58.311Z,98166.25
2023-01-17T06:00:25.688Z,98168.91
2023-01-17T06:02:56.587Z,98169.75
2023-01-17T06:05:24.293Z,98178.22
2023-01-17T06:07:51.659Z,98180.25
2023-01-17T06:10:19.516Z,98182.78
2023-01-17T06:12:47.309Z,98188.94
2023-01-17T06:15:15.957Z,98188.00
2023-01-17T06:17:43.092Z,98198.59
2023-01-17T06:20:12.342Z,98202.19
2023-01-17T06:22:39.341Z,98203.31
2023-01-17T06:25:07.040Z,98198.00
2023-01-17T06:27:34.104Z,98188.56
2023-01-17T06:30:01.251Z,98205.84
2023-01-17T06:32:28.176Z,98214.41
2023-01-17T06:34:55.085Z,98206.44
2023-01-17T06:37:21.976Z,98201.03
2023-01-17T06:39:49.142Z,98198.38
2023-01-17T06:42:16.335Z,98207.91
2023-01-17T06:44:43.400Z,98207.19
2023-01-17T06:47:10.348Z,98205.13
2023-01-17T06:49:37.193Z,98200.91
2023-01-17T06:52:04.272Z,98207.69
2023-01-17T06:54:31.080Z,98213.00
2023-01-17T06:56:57.867Z,98227.44
2023-01-17T06:59:24.686Z,98234.34
2023-01-17T07:01:52.473Z,98243.88
2023-01-17T07:04:19.812Z,98245.94
2023-01-17T07:06:46.630Z,98258.22
2023-01-17T07:09:13.503Z,98263.53
2023-01-17T07:11:40.470Z,98271.63
2023-01-17T07:14:12.561Z,98271.63
2023-01-17T07:16:39.372Z,98279.47
2023-01-17T07:19:06.279Z,98277.66
2023-01-17T07:21:33.120Z,98285.16
2023-01-17T07:24:00.501Z,98292.66
2023-01-17T07:26:27.324Z,98301.69
2023-01-17T07:28:54.141Z,98305.09
2023-01-17T07:31:21.010Z,98311.72
2023-01-17T07:33:47.812Z,98307.50
2023-01-17T07:36:14.766Z,98315.91
2023-01-17T07:38:43.877Z,98316.47
2023-01-17T07:41:11.159Z,98316.94
2023-01-17T07:43:38.426Z,98326.06
2023-01-17T07:46:07.343Z,98328.72
2023-01-17T07:48:34.246Z,98339.06
2023-01-17T07:51:01.151Z,98345.22
2023-01-17T07:53:29.726Z,98350.03
2023-01-17T07:56:04.644Z,98354.37
2023-01-17T07:58:32.489Z,98348.03
2023-01-17T08:01:04.140Z,98355.03
2023-01-17T08:03:32.468Z,98374.66
2023-01-17T08:05:59.399Z,98371.59
2023-01-17T08:08:27.851Z,98377.56
2023-01-17T08:10:54.913Z,98387.75
2023-01-17T08:13:22.175Z,98389.00
2023-01-17T08:15:50.064Z,98392.50
2023-01-17T08:18:17.811Z,98399.06
2023-01-17T08:20:45.040Z,98392.50
2023-01-17T08:23:12.245Z,98410.13
2023-01-17T08:25:40.147Z,98419.88
2023-01-17T08:28:06.998Z,98409.34
2023-01-17T08:30:34.824Z,98417.25
2023-01-17T08:33:01.782Z,98433.16
2023-01-17T08:35:28.833Z,98422.53
2023-01-17T08:37:56.407Z,98418.06
2023-01-17T08:40:24.071Z,98416.59
2023-01-17T08:42:58.711Z,98418.91
2023-01-17T08:45:25.759Z,98419.12
2023-01-17T08:47:52.975Z,98416.53
2023-01-17T08:50:22.723Z,98419.41
2023-01-17T08:52:50.407Z,98423.56
2023-01-17T08:55:17.826Z,98433.41
2023-01-17T08:57:44.651Z,98428.44
2023-01-17T09:00:12.067Z,98428.94
2023-01-17T09:02:38.914Z,98431.16
2023-01-17T09:05:06.278Z,98430.94
2023-01-17T09:07:33.215Z,98419.53
2023-01-17T09:10:00.008Z,98427.25
2023-01-17T09:12:26.840Z,98417.06
2023-01-17T09:14:53.794Z,98428.63
2023-01-17T09:17:20.799Z,98433.44
2023-01-17T09:19:48.812Z,98431.66
2023-01-17T09:22:15.816Z,98438.94
2023-01-17T09:24:42.693Z,98446.84
2023-01-17T09:27:09.522Z,98438.69
2023-01-17T09:29:36.444Z,98441.50
2023-01-17T09:32:03.549Z,98434.91
2023-01-17T09:34:30.713Z,98438.66
2023-01-17T09:36:57.733Z,98440.69
2023-01-17T09:39:24.714Z,98442.00
2023-01-17T09:41:58.913Z,98458.97
2023-01-17T09:44:41.125Z,98468.19
2023-01-17T09:47:17.588Z,98462.53
2023-01-17T09:49:46.600Z,98464.19
2023-01-17T09:52:20.971Z,98462.19
2023-01-17T09:54:49.344Z,98462.37
2023-01-17T09:57:41.746Z,98474.88
2023-01-17T10:00:08.949Z,98471.69
2023-01-17T10:02:51.279Z,98475.69
2023-01-17T10:05:36.981Z,98472.28
2023-01-17T10:08:09.883Z,98461.03
2023-01-17T10:10:50.445Z,98473.09
2023-01-17T10:13:17.139Z,98467.34
2023-01-17T10:15:51.602Z,98473.38
2023-01-17T10:18:52.522Z,98477.03
2023-01-17T10:21:49.536Z,98487.19
2023-01-17T10:24:22.257Z,98486.53
2023-01-17T10:26:56.401Z,98485.00
2023-01-17T10:29:28.010Z,98478.09
2023-01-17T10:32:02.366Z,98486.13
2023-01-17T10:34:45.489Z,98486.66
2023-01-17T10:37:19.010Z,98481.97
2023-01-17T10:39:48.653Z,98491.47
2023-01-17T10:42:15.376Z,98490.16
2023-01-17T10:45:14.312Z,98486.72
2023-01-17T10:47:42.505Z,98492.22
2023-01-17T10:50:13.211Z,98479.59
2023-01-17T10:52:53.262Z,98465.41
2023-01-17T10:55:40.157Z,98465.34
2023-01-17T10:58:11.495Z,98452.28
2023-01-17T11:01:01.526Z,98446.22
2023-01-17T11:03:28.882Z,98443.72
2023-01-17T11:06:16.070Z,98445.06
2023-01-17T11:08:57.445Z,98445.63
2023-01-17T11:11:30.082Z,98437.09
2023-01-17T11:14:01.573Z,98424.06
2023-01-17T11:16:31.400Z,98428.84
2023-01-17T11:19:10.508Z,98422.06
2023-01-17T11:21:39.307Z,98412.56
2023-01-17T11:24:11.572Z,98417.03
2023-01-17T11:26:47.493Z,98406.59
2023-01-17T11:29:16.321Z,98399.59
2023-01-17T11:31:43.260Z,98400.22
2023-01-17T11:34:17.271Z,98410.38
2023-01-17T11:36:44.185Z,98408.56
2023-01-17T11:39:17.179Z,98411.62
2023-01-17T11:41:46.022Z,98403.00
2023-01-17T11:44:28.277Z,98403.41
2023-01-17T11:47:14.462Z,98407.78
2023-01-17T11:49:46.193Z,98390.22
2023-01-17T11:52:18.976Z,98392.00
2023-01-17T11:54:47.235Z,98384.41
2023-01-17T11:57:24.322Z,98387.94
2023-01-17T12:00:11.657Z,98394.53
2023-01-17T12:02:57.120Z,98380.56
2023-01-17T12:05:28.995Z,98375.56
2023-01-17T12:08:14.393Z,98359.50
2023-01-17T12:10:56.229Z,98368.25
2023-01-17T12:14:02.195Z,98363.66
2023-01-17T12:16:38.907Z,98375.97
2023-01-17T12:19:18.507Z,98391.31
2023-01-17T12:22:25.359Z,98405.38
2023-01-17T12:25:20.546Z,98395.72
2023-01-17T12:28:26.732Z,98389.81
2023-01-17T12:31:20.794Z,98407.72
2023-01-17T12:33:52.502Z,98412.19
2023-01-17T12:36:27.661Z,98412.62
2023-01-17T12:38:56.617Z,98406.69
2023-01-17T12:41:34.175Z,98399.41
2023-01-17T12:44:01.318Z,98388.13
2023-01-17T12:46:38.705Z,98395.78
2023-01-17T12:49:24.785Z,98386.09
2023-01-17T12:52:17.327Z,98380.75
2023-01-17T12:54:48.057Z,98382.44
2023-01-17T12:57:22.448Z,98382.44
2023-01-17T13:00:05.193Z,98384.97
2023-01-17T13:02:52.643Z,98391.03
2023-01-17T13:05:23.908Z,98381.94
2023-01-17T13:07:57.883Z,98393.16
2023-01-17T13:10:32.084Z,98393.06
2023-01-17T13:13:22.406Z,98388.31
2023-01-17T13:15:51.237Z,98397.72
2023-01-17T13:18:23.232Z,98386.75
2023-01-17T13:21:04.912Z,98379.00
2023-01-17T13:24:07.714Z,98388.69
2023-01-17T13:26:36.387Z,98373.19
2023-01-17T13:29:35.190Z,98379.63
2023-01-17T13:32:23.403Z,98393.22
2023-01-17T13:35:06.211Z,98396.12
2023-01-17T13:37:56.894Z,98372.91
2023-01-17T13:40:50.014Z,98392.16
2023-01-17T13:43:25.851Z,98399.44
2023-01-17T13:46:00.469Z,98405.75
2023-01-17T13:48:32.227Z,98406.72
2023-01-17T13:51:06.306Z,98405.41
2023-01-17T13:53:36.896Z,98430.22
2023-01-17T13:56:19.028Z,98431.72
2023-01-17T13:58:54.398Z,98429.66
2023-01-17T14:01:24.532Z,98433.41
2023-01-17T14:03:51.767Z,98438.31
2023-01-17T14:06:37.924Z,98430.56
2023-01-17T14:09:12.164Z,98422.81
2023-01-17T14:12:03.144Z,98407.69
2023-01-17T14:14:43.632Z,98409.25
2023-01-17T14:17:16.709Z,98403.69
2023-01-17T14:19:47.714Z,98387.47
2023-01-17T14:22:18.358Z,98374.41
2023-01-17T14:25:11.022Z,98378.78
2023-01-17T14:27:43.640Z,98376.22
2023-01-17T14:30:46.010Z,98370.31
2023-01-17T14:33:18.382Z,98363.31
2023-01-17T14:35:54.933Z,98362.31
2023-01-17T14:38:27.439Z,98350.94
2023-01-17T14:40:57.443Z,98340.78
2023-01-17T14:43:26.648Z,98333.28
2023-01-17T14:45:58.740Z,98320.88
2023-01-17T14:48:25.929Z,98322.66
2023-01-17T14:50:55.026Z,98311.31
2023-01-17T14:53:29.113Z,98302.84
2023-01-17T14:55:56.658Z,98297.88
2023-01-17T14:58:32.213Z,98304.03
2023-01-17T15:01:03.768Z,98303.28
2023-01-17T15:03:33.986Z,98314.22
2023-01-17T15:06:11.234Z,98318.78
2023-01-17T15:08:38.539Z,98323.87
2023-01-17T15:11:08.839Z,98327.28
2023-01-17T15:13:47.905Z,98332.56
2023-01-17T15:16:24.838Z,98322.78
2023-01-17T15:18:53.263Z,98328.84
2023-01-17T15:21:22.833Z,98326.28
2023-01-17T15:24:01.500Z,98341.13
2023-01-17T15:26:33.467Z,98342.00
2023-01-17T15:29:05.428Z,98337.38
2023-01-17T15:31:47.230Z,98338.34
2023-01-17T15:34:35.077Z,98339.19
2023-01-17T15:37:04.551Z,98334.84
2023-01-17T15:39:39.297Z,98337.63
2023-01-17T15:42:08.410Z,98331.56
2023-01-17T15:44:48.381Z,98329.88
2023-01-17T15:47:33.944Z,98334.59
2023-01-17T15:50:03.591Z,98334.00
2023-01-17T15:52:30.656Z,98332.53
2023-01-17T15:55:12.639Z,98337.13
2023-01-17T15:57:39.724Z,98334.56
2023-01-17T16:00:20.265Z,98335.31
2023-01-17T16:02:55.367Z,98329.00
2023-01-17T16:05:23.130Z,98324.53
2023-01-17T16:08:02.733Z,98323.34
2023-01-17T16:10:32.057Z,98322.97
2023-01-17T16:12:59.801Z,98325.50
2023-01-17T16:15:27.469Z,98323.69
2023-01-17T16:18:07.677Z,98317.41
2023-01-17T16:20:37.494Z,98320.78
2023-01-17T16:23:04.370Z,98322.63
2023-01-17T16:25:34.723Z,98317.53
2023-01-17T16:28:07.181Z,98303.16
2023-01-17T16:30:34.157Z,98300.81
2023-01-17T16:33:03.027Z,98312.09
2023-01-17T16:35:32.270Z,98317.88
2023-01-17T16:38:02.326Z,98305.69
2023-01-17T16:40:31.939Z,98308.69
2023-01-17T16:42:59.884Z,98286.84
2023-01-17T16:45:27.269Z,98281.97
2023-01-17T16:47:54.518Z,98280.19
2023-01-17T16:50:25.173Z,98282.84
2023-01-17T16:52:53.529Z,98279.22
2023-01-17T16:55:22.354Z,98283.09
2023-01-17T16:57:50.378Z,98284.53
2023-01-17T17:00:18.678Z,98272.56
2023-01-17T17:02:50.064Z,98269.06
2023-01-17T17:05:17.055Z,98265.81
2023-01-17T17:07:45.921Z,98255.78
2023-01-17T17:10:14.659Z,98254.22
2023-01-17T17:12:41.997Z,98253.38
2023-01-17T17:15:10.060Z,98257.84
2023-01-17T17:17:41.748Z,98263.37
2023-01-17T17:20:12.327Z,98250.94
2023-01-17T17:22:40.423Z,98252.28
2023-01-17T17:25:07.619Z,98257.34
2023-01-17T17:27:35.030Z,98262.87
2023-01-17T17:30:01.979Z,98253.34
2023-01-17T17:32:28.966Z,98248.50
2023-01-17T17:34:55.980Z,98250.06
2023-01-17T17:37:23.802Z,98244.41
2023-01-17T17:39:50.802Z,98247.72
2023-01-17T17:42:19.663Z,98240.50
2023-01-17T17:44:46.661Z,98236.16
2023-01-17T17:47:13.744Z,98227.69
2023-01-17T17:49:40.778Z,98216.56
2023-01-17T17:52:08.357Z,98211.66
2023-01-17T17:54:35.781Z,98215.47
2023-01-17T17:57:02.792Z,98208.34
2023-01-17T17:59:29.985Z,98208.50
2023-01-17T18:01:58.843Z,98209.22
2023-01-17T18:04:26.115Z,98197.88
2023-01-17T18:06:56.958Z,98189.75
2023-01-17T18:09:24.088Z,98188.06
2023-01-17T18:11:51.507Z,98177.44
2023-01-17T18:14:22.163Z,98173.47
2023-01-17T18:16:50.708Z,98152.69
2023-01-17T18:19:21.654Z,98150.03
2023-01-17T18:21:50.432Z,98141.47
2023-01-17T18:24:19.925Z,98119.59
2023-01-17T18:26:50.083Z,98141.47
2023-01-17T18:29:18.903Z,98142.19
2023-01-17T18:31:47.034Z,98126.25
2023-01-17T18:34:15.752Z,98123.69
2023-01-17T18:36:43.756Z,98126.84
2023-01-17T18:39:13.515Z,98115.50
2023-01-17T18:41:41.767Z,98091.47
2023-01-17T18:44:12.807Z,98099.69
2023-01-17T18:46:42.198Z,98103.66
2023-01-17T18:49:14.796Z,98099.94
2023-01-17T18:51:46.649Z,98087.50
2023-01-17T18:54:13.671Z,98080.37
2023-01-17T18:56:42.481Z,98077.59
2023-01-17T18:59:14.714Z,98075.06
2023-01-17T19:01:43.728Z,98078.06
2023-01-17T19:04:15.126Z,98074.81
2023-01-17T19:06:47.587Z,98072.28
2023-01-17T19:09:15.915Z,98076.62
2023-01-17T19:11:44.860Z,98083.13
2023-01-17T19:14:12.999Z,98088.69
2023-01-17T19:16:41.310Z,98077.59
2023-01-17T19:19:10.604Z,98070.81
2023-01-17T19:21:37.558Z,98061.28
2023-01-17T19:24:05.152Z,98061.53
2023-01-17T19:26:33.230Z,98057.53
2023-01-17T19:29:00.452Z,98051.00
2023-01-17T19:31:29.537Z,98039.28
2023-01-17T19:33:58.227Z,98041.09
2023-01-17T19:36:29.235Z,98047.81
2023-01-17T19:39:04.440Z,98040.78
2023-01-17T19:41:34.574Z,98029.69
2023-01-17T19:44:04.406Z,98029.94
2023-01-17T19:46:33.816Z,98019.44
2023-01-17T19:49:01.655Z,98024.72
2023-01-17T19:51:29.217Z,98020.03
2023-01-17T19:53:56.818Z,98012.31
2023-01-17T19:56:25.861Z,98004.91
2023-01-17T19:58:53.435Z,97995.06
2023-01-17T20:01:28.052Z,97975.97
2023-01-17T20:03:57.825Z,97972.06
2023-01-17T20:06:27.804Z,97970.34
2023-01-17T20:08:54.948Z,97972.91
2023-01-17T20:11:23.599Z,97972.16
2023-01-17T20:13:58.366Z,97966.34
2023-01-17T20:16:27.029Z,97970.06
2023-01-17T20:18:53.967Z,97950.91
2023-01-17T20:21:26.085Z,97960.59
2023-01-17T20:23:54.363Z,97945.44
2023-01-17T20:26:25.224Z,97941.97
2023-01-17T20:28:53.307Z,97938.97
2023-01-17T20:31:25.359Z,97941.88
2023-01-17T20:33:55.958Z,97934.00
2023-01-17T20:36:24.972Z,97931.69
2023-01-17T20:38:53.330Z,97920.78
2023-01-17T20:41:20.240Z,97920.94
2023-01-17T20:43:49.626Z,97914.34
2023-01-17T20:46:17.665Z,97903.88
2023-01-17T20:48:47.275Z,97900.72
2023-01-17T20:51:15.186Z,97906.31
2023-01-17T20:53:43.652Z,97878.34
2023-01-17T20:56:12.599Z,97877.41
2023-01-17T20:58:39.866Z,97868.53
2023-01-17T21:01:09.365Z,97871.97
2023-01-17T21:03:37.599Z,97862.16
2023-01-17T21:06:07.005Z,97848.50
2023-01-17T21:08:36.098Z,97833.56
2023-01-17T21:11:03.326Z,97832.94
2023-01-17T21:13:31.689Z,97836.94
2023-01-17T21:15:58.916Z,97812.34
2023-01-17T21:18:26.979Z,97822.22
2023-01-17T21:20:54.669Z,97821.00
2023-01-17T21:23:23.489Z,97800.75
2023-01-17T21:25:57.679Z,97783.25
2023-01-17T21:28:27.616Z,97792.41
2023-01-17T21:30:54.827Z,97795.28
2023-01-17T21:33:22.812Z,97791.50
2023-01-17T21:35:49.884Z,97795.75
2023-01-17T21:38:16.741Z,97789.13
2023-01-17T21:40:44.320Z,97777.25
2023-01-17T21:43:11.537Z,97765.00
2023-01-17T21:45:39.534Z,97753.34
2023-01-17T21:48:07.076Z,97753.56
2023-01-17T21:50:34.179Z,97753.59
2023-01-17T21:53:00.948Z,97732.75
2023-01-17T21:55:46.339Z,97722.66
2023-01-17T21:58:33.157Z,97725.19
2023-01-17T22:01:10.925Z,97734.00
2023-01-17T22:03:38.161Z,97736.72
2023-01-17T22:06:05.059Z,97738.75
2023-01-17T22:08:33.456Z,97743.22
2023-01-17T22:11:14.928Z,97745.50
2023-01-17T22:13:42.996Z,97734.25
2023-01-17T22:16:36.054Z,97730.41
2023-01-17T22:19:03.004Z,97724.03
2023-01-17T22:21:29.971Z,97713.34
2023-01-17T22:23:59.952Z,97713.47
2023-01-17T22:26:29.401Z,97716.94
2023-01-17T22:28:59.189Z,97708.50
2023-01-17T22:31:27.237Z,97694.59
2023-01-17T22:33:59.507Z,97699.87
2023-01-17T22:36:26.740Z,97693.00
2023-01-17T22:38:53.661Z,97688.69
2023-01-17T22:41:23.696Z,97688.47
2023-01-17T22:43:52.676Z,97696.41
2023-01-17T22:46:22.427Z,97700.47
2023-01-17T22:48:49.747Z,97693.47
2023-01-17T22:51:18.584Z,97689.44
2023-01-17T22:53:47.952Z,97684.16
2023-01-17T22:56:17.714Z,97689.91
2023-01-17T22:58:45.061Z,97706.19
2023-01-17T23:01:19.992Z,97715.19
2023-01-17T23:03:52.241Z,97706.13
2023-01-17T23:06:21.764Z,97706.41
2023-01-17T23:08:51.109Z,97708.88
2023-01-17T23:11:39.801Z,97691.56
2023-01-17T23:14:07.722Z,97688.69
2023-01-17T23:16:53.143Z,97689.53
2023-01-17T23:19:22.901Z,97691.72
2023-01-17T23:22:13.633Z,97695.19
2023-01-17T23:24:44.274Z,97687.72
2023-01-17T23:27:41.549Z,97681.00
2023-01-17T23:30:16.847Z,97696.16
2023-01-17T23:32:51.482Z,97696.72
2023-01-17T23:35:21.012Z,97690.72
2023-01-17T23:38:06.827Z,97681.00
2023-01-17T23:40:36.128Z,97684.59
2023-01-17T23:43:21.995Z,97684.25
2023-01-17T23:45:53.192Z,97687.84
2023-01-17T23:48:28.481Z,97702.00
2023-01-17T23:51:08.520Z,97709.94
2023-01-17T23:53:36.793Z,97708.03
2023-01-17T23:56:23.208Z,97705.31
2023-01-17T23:58:50.147Z,97704.22
